createdAt,value
2018-12-20T00:02:16.325Z,23.93
2018-12-20T00:04:45.618Z,13.40
2018-12-20T00:07:14.435Z,18.90
2018-12-20T00:09:43.219Z,19.23
2018-12-20T00:12:12.030Z,18.73
2018-12-20T00:14:40.841Z,18.83
2018-12-20T00:17:15.002Z,16.40
2018-12-20T00:19:43.773Z,22.27
2018-12-20T00:22:13.007Z,14.73
2018-12-20T00:24:41.780Z,16.70
2018-12-20T00:27:11.767Z,13.83
2018-12-20T00:29:40.767Z,20.27
2018-12-20T00:32:09.648Z,19.13
2018-12-20T00:34:38.376Z,16.57
2018-12-20T00:37:07.156Z,21.93
2018-12-20T00:39:35.925Z,16.00
2018-12-20T00:42:04.746Z,17.67
2018-12-20T00:44:37.342Z,16.73
2018-12-20T00:47:03.651Z,17.33
2018-12-20T00:49:32.327Z,17.57
2018-12-20T00:52:01.170Z,13.20
2018-12-20T00:54:30.011Z,21.43
2018-12-20T00:56:58.823Z,19.63
2018-12-20T00:59:27.518Z,19.97
2018-12-20T01:01:56.331Z,15.10
2018-12-20T01:04:25.148Z,19.20
2018-12-20T01:06:54.744Z,19.60
2018-12-20T01:09:23.602Z,12.37
2018-12-20T01:11:52.374Z,15.03
2018-12-20T01:14:21.158Z,14.20
2018-12-20T01:16:50.552Z,17.60
2018-12-20T01:19:20.231Z,18.27
2018-12-20T01:21:48.875Z,13.50
2018-12-20T01:24:17.663Z,12.67
2018-12-20T01:26:46.455Z,14.60
2018-12-20T01:29:15.342Z,17.60
2018-12-20T01:31:44.136Z,16.63
2018-12-20T01:34:12.871Z,18.53
2018-12-20T01:36:41.747Z,14.70
2018-12-20T01:39:10.486Z,16.27
2018-12-20T01:41:39.298Z,18.07
2018-12-20T01:44:08.058Z,18.00
2018-12-20T01:46:36.906Z,12.13
2018-12-20T01:49:05.659Z,12.57
2018-12-20T01:51:34.570Z,19.60
2018-12-20T01:54:03.527Z,12.00
2018-12-20T01:56:32.432Z,15.30
2018-12-20T01:59:01.155Z,12.70
2018-12-20T02:01:29.980Z,18.40
2018-12-20T02:03:58.805Z,13.93
2018-12-20T02:06:27.536Z,17.30
2018-12-20T02:08:56.913Z,13.80
2018-12-20T02:11:25.829Z,11.80
2018-12-20T02:13:54.493Z,18.67
2018-12-20T02:16:23.296Z,12.90
2018-12-20T02:18:53.380Z,14.37
2018-12-20T02:21:22.026Z,12.63
2018-12-20T02:23:51.040Z,17.20
2018-12-20T02:26:19.823Z,16.13
2018-12-20T02:28:49.026Z,17.20
2018-12-20T02:31:18.610Z,10.33
2018-12-20T02:33:47.386Z,14.80
2018-12-20T02:36:16.180Z,14.80
2018-12-20T02:38:44.987Z,10.97
2018-12-20T02:41:13.775Z,14.67
2018-12-20T02:43:42.830Z,12.80
2018-12-20T02:46:11.502Z,9.33
2018-12-20T02:48:40.265Z,13.50
2018-12-20T02:51:08.990Z,8.73
2018-12-20T02:53:37.752Z,11.87
2018-12-20T02:56:06.615Z,12.60
2018-12-20T02:58:35.403Z,8.10
2018-12-20T03:01:05.140Z,11.33
2018-12-20T03:03:34.702Z,17.60
2018-12-20T03:06:03.469Z,11.77
2018-12-20T03:08:32.434Z,12.20
2018-12-20T03:11:01.263Z,12.50
2018-12-20T03:13:30.198Z,12.70
2018-12-20T03:15:59.344Z,10.20
2018-12-20T03:18:28.103Z,10.10
2018-12-20T03:20:56.863Z,13.00
2018-12-20T03:23:25.647Z,10.03
2018-12-20T03:25:54.744Z,16.70
2018-12-20T03:28:24.043Z,14.30
2018-12-20T03:30:53.716Z,8.03
2018-12-20T03:33:22.313Z,12.77
2018-12-20T03:35:51.122Z,12.37
2018-12-20T03:38:19.902Z,12.87
2018-12-20T03:40:48.710Z,13.30
2018-12-20T03:43:17.492Z,14.67
2018-12-20T03:45:46.273Z,8.60
2018-12-20T03:48:15.214Z,10.73
2018-12-20T03:50:44.130Z,12.93
2018-12-20T03:53:12.752Z,13.27
2018-12-20T03:55:41.547Z,12.00
2018-12-20T03:58:10.538Z,8.20
2018-12-20T04:00:40.891Z,11.40
2018-12-20T04:03:09.856Z,12.40
2018-12-20T04:05:38.610Z,13.47
2018-12-20T04:08:07.485Z,11.30
2018-12-20T04:10:36.054Z,10.23
2018-12-20T04:13:04.855Z,11.67
2018-12-20T04:15:37.739Z,10.13
2018-12-20T04:18:02.635Z,5.83
2018-12-20T04:20:31.841Z,13.20
2018-12-20T04:23:00.631Z,12.37
2018-12-20T04:25:29.460Z,12.57
2018-12-20T04:27:58.190Z,12.83
2018-12-20T04:30:27.133Z,10.03
2018-12-20T04:32:56.299Z,8.17
2018-12-20T04:35:24.803Z,10.10
2018-12-20T04:37:54.131Z,11.07
2018-12-20T04:40:22.958Z,11.00
2018-12-20T04:42:51.766Z,12.17
2018-12-20T04:45:20.668Z,9.77
2018-12-20T04:47:50.229Z,7.57
2018-12-20T04:50:19.702Z,6.90
2018-12-20T04:52:48.485Z,11.40
2018-12-20T04:55:17.392Z,8.03
2018-12-20T04:57:47.579Z,9.07
2018-12-20T05:00:17.335Z,5.57
2018-12-20T05:02:46.091Z,8.63
2018-12-20T05:05:15.035Z,8.97
2018-12-20T05:07:43.819Z,9.70
2018-12-20T05:10:12.679Z,8.70
2018-12-20T05:12:41.347Z,8.90
2018-12-20T05:15:10.056Z,9.90
2018-12-20T05:17:38.811Z,9.63
2018-12-20T05:20:07.610Z,7.27
2018-12-20T05:22:36.505Z,10.00
2018-12-20T05:25:05.725Z,9.10
2018-12-20T05:27:34.324Z,9.53
2018-12-20T05:30:03.928Z,10.80
2018-12-20T05:32:32.661Z,14.13
2018-12-20T05:35:01.712Z,21.00
2018-12-20T05:37:30.311Z,9.73
2018-12-20T05:40:00.835Z,9.13
2018-12-20T05:42:29.528Z,10.97
2018-12-20T05:44:58.255Z,9.47
2018-12-20T05:47:27.566Z,8.50
2018-12-20T05:49:56.359Z,12.17
2018-12-20T05:52:25.185Z,14.00
2018-12-20T05:54:53.963Z,8.63
2018-12-20T05:57:22.804Z,9.57
2018-12-20T05:59:51.653Z,13.20
2018-12-20T06:02:20.439Z,8.33
2018-12-20T06:04:50.323Z,12.77
2018-12-20T06:07:19.267Z,10.97
2018-12-20T06:09:48.680Z,10.70
2018-12-20T06:12:17.581Z,9.97
2018-12-20T06:14:46.672Z,14.30
2018-12-20T06:17:15.443Z,10.27
2018-12-20T06:19:44.235Z,11.23
2018-12-20T06:22:14.021Z,8.57
2018-12-20T06:24:43.215Z,10.77
2018-12-20T06:27:12.002Z,12.13
2018-12-20T06:29:41.452Z,12.20
2018-12-20T06:32:10.253Z,7.17
2018-12-20T06:34:39.035Z,8.00
2018-12-20T06:37:08.336Z,10.53
2018-12-20T06:39:37.170Z,11.83
2018-12-20T06:42:06.530Z,12.57
2018-12-20T06:44:35.847Z,9.30
2018-12-20T06:47:05.105Z,13.37
2018-12-20T06:49:33.904Z,11.87
2018-12-20T06:52:02.794Z,10.47
2018-12-20T06:54:31.582Z,14.87
2018-12-20T06:57:00.368Z,16.20
2018-12-20T06:59:29.208Z,12.67
2018-12-20T07:01:59.174Z,13.33
2018-12-20T07:04:28.983Z,22.90
2018-12-20T07:06:57.813Z,28.80
2018-12-20T07:09:26.611Z,13.70
2018-12-20T07:11:55.404Z,9.10
2018-12-20T07:14:24.202Z,15.50
2018-12-20T07:16:52.996Z,17.57
2018-12-20T07:19:21.786Z,12.83
2018-12-20T07:21:51.539Z,10.97
2018-12-20T07:24:20.719Z,17.53
2018-12-20T07:26:49.487Z,14.53
2018-12-20T07:29:18.315Z,18.30
2018-12-20T07:31:47.098Z,18.10
2018-12-20T07:34:17.437Z,19.93
2018-12-20T07:36:46.283Z,15.10
2018-12-20T07:39:15.081Z,16.27
2018-12-20T07:41:43.975Z,12.37
2018-12-20T07:44:12.757Z,11.30
2018-12-20T07:46:41.559Z,16.30
2018-12-20T07:49:10.356Z,9.73
2018-12-20T07:51:39.221Z,13.30
2018-12-20T07:54:08.026Z,13.27
2018-12-20T07:56:36.803Z,12.07
2018-12-20T07:59:05.591Z,15.33
2018-12-20T08:01:34.379Z,16.23
2018-12-20T08:04:03.569Z,12.30
2018-12-20T08:06:32.047Z,16.40
2018-12-20T08:09:00.839Z,16.57
2018-12-20T08:11:29.654Z,21.90
2018-12-20T08:13:58.473Z,19.60
2018-12-20T08:16:28.694Z,17.70
2018-12-20T08:18:58.170Z,17.20
2018-12-20T08:21:26.943Z,16.60
2018-12-20T08:23:55.781Z,17.57
2018-12-20T08:26:24.612Z,21.00
2018-12-20T08:28:53.397Z,19.03
2018-12-20T08:31:22.182Z,11.73
2018-12-20T08:33:50.966Z,18.67
2018-12-20T08:36:19.742Z,14.70
2018-12-20T08:38:48.598Z,14.83
2018-12-20T08:41:17.395Z,16.17
2018-12-20T08:43:46.199Z,20.70
2018-12-20T08:46:14.991Z,14.83
2018-12-20T08:48:43.802Z,17.17
2018-12-20T08:51:12.580Z,16.10
2018-12-20T08:53:41.372Z,16.50
2018-12-20T08:56:10.164Z,12.60
2018-12-20T08:58:38.951Z,20.87
2018-12-20T09:01:07.762Z,18.33
2018-12-20T09:03:36.735Z,17.10
2018-12-20T09:06:05.599Z,17.43
2018-12-20T09:08:34.397Z,18.40
2018-12-20T09:11:03.179Z,16.30
2018-12-20T09:13:32.010Z,18.37
2018-12-20T09:16:00.799Z,14.17
2018-12-20T09:18:29.600Z,21.50
2018-12-20T09:20:58.387Z,20.97
2018-12-20T09:23:27.250Z,28.97
2018-12-20T09:25:56.055Z,15.63
2018-12-20T09:28:24.964Z,20.63
2018-12-20T09:30:53.802Z,17.70
2018-12-20T09:33:22.675Z,15.50
2018-12-20T09:35:51.475Z,13.63
2018-12-20T09:38:20.276Z,15.73
2018-12-20T09:40:49.062Z,14.53
2018-12-20T09:43:17.861Z,13.67
2018-12-20T09:45:46.639Z,15.17
2018-12-20T09:48:15.433Z,16.60
2018-12-20T09:50:44.220Z,12.97
2018-12-20T09:53:13.015Z,23.33
2018-12-20T09:55:41.813Z,11.50
2018-12-20T09:58:11.570Z,16.97
2018-12-20T10:00:40.342Z,20.43
2018-12-20T10:03:09.144Z,16.33
2018-12-20T10:05:37.936Z,19.23
2018-12-20T10:08:06.807Z,17.47
2018-12-20T10:10:35.651Z,14.70
2018-12-20T10:13:04.690Z,19.40
2018-12-20T10:15:37.140Z,17.70
2018-12-20T10:18:04.108Z,25.27
2018-12-20T10:20:32.897Z,17.63
2018-12-20T10:23:01.676Z,17.57
2018-12-20T10:25:31.011Z,13.30
2018-12-20T10:27:59.815Z,14.43
2018-12-20T10:30:28.608Z,17.87
2018-12-20T10:32:57.439Z,17.10
2018-12-20T10:35:26.225Z,16.50
2018-12-20T10:37:55.019Z,18.10
2018-12-20T10:40:23.826Z,22.93
2018-12-20T10:42:52.666Z,15.23
2018-12-20T10:45:21.463Z,13.53
2018-12-20T10:47:50.231Z,12.97
2018-12-20T10:50:19.055Z,26.17
2018-12-20T10:52:47.857Z,21.47
2018-12-20T10:55:16.654Z,17.33
2018-12-20T10:57:48.582Z,21.67
2018-12-20T11:00:17.367Z,17.50
2018-12-20T11:02:51.609Z,22.73
2018-12-20T11:05:23.481Z,19.87
2018-12-20T11:07:56.872Z,15.13
2018-12-20T11:10:27.866Z,18.67
2018-12-20T11:12:57.051Z,21.30
2018-12-20T11:15:25.867Z,24.53
2018-12-20T11:17:54.664Z,19.13
2018-12-20T11:20:24.336Z,15.37
2018-12-20T11:22:53.879Z,15.90
2018-12-20T11:25:22.738Z,13.67
2018-12-20T11:27:51.824Z,19.17
2018-12-20T11:30:20.603Z,17.53
2018-12-20T11:32:49.410Z,25.70
2018-12-20T11:35:18.213Z,14.70
2018-12-20T11:37:47.116Z,16.77
2018-12-20T11:40:15.967Z,14.60
2018-12-20T11:42:44.786Z,17.40
2018-12-20T11:45:13.593Z,16.37
2018-12-20T11:47:46.085Z,16.37
2018-12-20T11:50:11.178Z,14.97
2018-12-20T11:52:42.510Z,15.57
2018-12-20T11:55:09.635Z,20.97
2018-12-20T11:57:38.436Z,16.13
2018-12-20T12:00:09.450Z,18.30
2018-12-20T12:02:38.331Z,23.53
2018-12-20T12:05:07.103Z,15.40
2018-12-20T12:07:36.503Z,11.30
2018-12-20T12:10:06.340Z,15.90
2018-12-20T12:12:35.623Z,20.30
2018-12-20T12:15:04.710Z,13.23
2018-12-20T12:17:33.515Z,14.23
2018-12-20T12:20:02.314Z,19.00
2018-12-20T12:22:31.162Z,15.07
2018-12-20T12:25:00.507Z,20.57
2018-12-20T12:27:29.339Z,13.73
2018-12-20T12:29:59.351Z,16.63
2018-12-20T12:32:28.134Z,21.60
2018-12-20T12:34:56.935Z,22.13
2018-12-20T12:37:25.754Z,13.57
2018-12-20T12:39:56.840Z,16.77
2018-12-20T12:42:25.638Z,13.73
2018-12-20T12:44:54.433Z,18.73
2018-12-20T12:47:28.573Z,13.50
2018-12-20T12:49:57.368Z,14.53
2018-12-20T12:52:26.149Z,21.67
2018-12-20T12:54:54.935Z,19.20
2018-12-20T12:57:23.747Z,33.57
2018-12-20T12:59:52.632Z,26.73
2018-12-20T13:02:21.703Z,16.30
2018-12-20T13:04:50.509Z,17.17
2018-12-20T13:07:19.295Z,20.63
2018-12-20T13:09:48.094Z,16.87
2018-12-20T13:12:18.010Z,12.73
2018-12-20T13:14:47.838Z,16.63
2018-12-20T13:17:16.648Z,15.20
2018-12-20T13:19:45.473Z,18.33
2018-12-20T13:22:14.315Z,20.63
2018-12-20T13:24:43.583Z,19.03
2018-12-20T13:27:12.397Z,21.93
2018-12-20T13:29:41.184Z,20.73
2018-12-20T13:32:09.980Z,9.70
2018-12-20T13:34:38.832Z,15.83
2018-12-20T13:37:15.628Z,22.27
2018-12-20T13:39:36.595Z,22.20
2018-12-20T13:42:06.080Z,16.27
2018-12-20T13:44:34.918Z,16.80
2018-12-20T13:47:04.763Z,20.43
2018-12-20T13:49:33.628Z,14.77
2018-12-20T13:52:02.479Z,18.07
2018-12-20T13:54:31.339Z,11.00
2018-12-20T13:57:00.164Z,18.33
2018-12-20T13:59:28.947Z,12.23
2018-12-20T14:01:57.738Z,14.73
2018-12-20T14:04:26.647Z,15.27
2018-12-20T14:06:55.466Z,17.67
2018-12-20T14:09:24.272Z,13.87
2018-12-20T14:11:53.368Z,18.93
2018-12-20T14:14:23.903Z,12.60
2018-12-20T14:16:52.672Z,18.57
2018-12-20T14:19:22.066Z,17.00
2018-12-20T14:21:50.860Z,14.77
2018-12-20T14:24:22.443Z,13.97
2018-12-20T14:26:51.239Z,11.43
2018-12-20T14:29:20.833Z,13.83
2018-12-20T14:31:50.144Z,15.20
2018-12-20T14:34:20.036Z,11.17
2018-12-20T14:36:52.742Z,19.03
2018-12-20T14:39:21.557Z,24.87
2018-12-20T14:41:50.354Z,25.20
2018-12-20T14:44:19.136Z,15.63
2018-12-20T14:46:47.925Z,21.37
2018-12-20T14:49:16.799Z,12.97
2018-12-20T14:51:45.597Z,13.67
2018-12-20T14:54:14.665Z,12.60
2018-12-20T14:56:43.472Z,13.83
2018-12-20T14:59:13.895Z,21.20
2018-12-20T15:01:43.180Z,14.07
2018-12-20T15:04:11.988Z,25.47
2018-12-20T15:06:41.591Z,11.77
2018-12-20T15:09:10.367Z,13.23
2018-12-20T15:11:39.172Z,15.07
2018-12-20T15:14:07.959Z,17.77
2018-12-20T15:16:36.760Z,15.37
2018-12-20T15:19:05.556Z,15.33
2018-12-20T15:21:35.063Z,13.50
2018-12-20T15:24:04.869Z,15.03
2018-12-20T15:26:33.968Z,15.13
2018-12-20T15:29:02.764Z,11.63
2018-12-20T15:31:31.620Z,17.43
2018-12-20T15:34:00.415Z,18.00
2018-12-20T15:36:29.820Z,14.37
2018-12-20T15:38:59.417Z,15.33
2018-12-20T15:41:28.212Z,21.93
2018-12-20T15:43:57.046Z,18.37
2018-12-20T15:46:26.482Z,16.40
2018-12-20T15:48:59.405Z,12.13
2018-12-20T15:51:28.212Z,14.47
2018-12-20T15:53:57.026Z,9.87
2018-12-20T15:56:25.838Z,13.37
2018-12-20T15:58:54.619Z,12.87
2018-12-20T16:01:23.680Z,14.27
2018-12-20T16:03:55.078Z,16.47
2018-12-20T16:06:23.853Z,10.63
2018-12-20T16:08:52.655Z,13.90
2018-12-20T16:11:21.562Z,17.80
2018-12-20T16:13:57.053Z,21.10
2018-12-20T16:16:26.758Z,16.57
2018-12-20T16:18:55.755Z,18.03
2018-12-20T16:21:24.516Z,15.83
2018-12-20T16:23:53.352Z,18.37
2018-12-20T16:26:23.084Z,19.70
2018-12-20T16:28:51.884Z,19.47
2018-12-20T16:31:20.731Z,18.30
2018-12-20T16:33:49.522Z,19.00
2018-12-20T16:36:18.343Z,17.83
2018-12-20T16:38:47.991Z,14.27
2018-12-20T16:41:16.791Z,19.40
2018-12-20T16:43:45.596Z,12.93
2018-12-20T16:46:14.410Z,15.83
2018-12-20T16:48:43.205Z,24.27
2018-12-20T16:51:12.757Z,14.20
2018-12-20T16:53:42.105Z,26.73
2018-12-20T16:56:12.726Z,23.33
2018-12-20T16:58:41.503Z,16.20
2018-12-20T17:01:10.340Z,20.13
2018-12-20T17:03:39.154Z,22.30
2018-12-20T17:06:07.946Z,19.27
2018-12-20T17:08:36.742Z,20.80
2018-12-20T17:11:05.547Z,18.77
2018-12-20T17:13:34.462Z,20.23
2018-12-20T17:16:03.396Z,19.83
2018-12-20T17:18:32.256Z,16.63
2018-12-20T17:21:01.043Z,19.53
2018-12-20T17:23:35.687Z,23.90
2018-12-20T17:26:04.023Z,17.67
2018-12-20T17:28:32.833Z,15.23
2018-12-20T17:31:01.626Z,16.83
2018-12-20T17:33:30.663Z,21.13
2018-12-20T17:35:59.432Z,16.13
2018-12-20T17:38:28.280Z,15.20
2018-12-20T17:40:57.119Z,31.37
2018-12-20T17:43:25.932Z,18.53
2018-12-20T17:45:54.764Z,25.13
2018-12-20T17:48:28.990Z,19.10
2018-12-20T17:50:54.340Z,15.83
2018-12-20T17:53:24.367Z,14.97
2018-12-20T17:55:53.152Z,20.43
2018-12-20T17:58:22.627Z,17.90
2018-12-20T18:00:52.354Z,24.63
2018-12-20T18:03:24.432Z,17.40
2018-12-20T18:05:54.344Z,27.63
2018-12-20T18:08:23.155Z,24.17
2018-12-20T18:10:53.131Z,15.73
2018-12-20T18:13:21.940Z,15.17
2018-12-20T18:15:50.727Z,22.03
2018-12-20T18:18:20.973Z,18.33
2018-12-20T18:20:51.071Z,21.47
2018-12-20T18:23:20.474Z,17.87
2018-12-20T18:25:49.272Z,17.93
2018-12-20T18:28:18.087Z,18.87
2018-12-20T18:30:46.880Z,20.50
2018-12-20T18:33:15.678Z,28.50
2018-12-20T18:35:44.465Z,26.77
2018-12-20T18:38:13.348Z,24.53
2018-12-20T18:40:42.226Z,20.80
2018-12-20T18:43:10.980Z,18.67
2018-12-20T18:45:39.883Z,22.00
2018-12-20T18:48:08.660Z,25.30
2018-12-20T18:50:37.564Z,24.33
2018-12-20T18:53:06.350Z,20.50
2018-12-20T18:55:35.148Z,25.53
2018-12-20T18:58:03.939Z,21.47
2018-12-20T19:00:35.996Z,19.60
2018-12-20T19:03:03.161Z,23.63
2018-12-20T19:05:32.075Z,26.53
2018-12-20T19:08:00.862Z,20.20
2018-12-20T19:10:30.980Z,30.23
2018-12-20T19:13:00.171Z,33.83
2018-12-20T19:15:29.051Z,22.87
2018-12-20T19:17:57.840Z,21.57
2018-12-20T19:20:27.826Z,22.67
2018-12-20T19:22:56.622Z,25.07
2018-12-20T19:25:25.488Z,21.03
2018-12-20T19:27:54.952Z,22.50
2018-12-20T19:30:23.749Z,22.33
2018-12-20T19:32:52.540Z,20.33
2018-12-20T19:35:21.351Z,32.77
2018-12-20T19:37:50.155Z,18.93
2018-12-20T19:40:19.078Z,25.17
2018-12-20T19:42:48.567Z,19.47
2018-12-20T19:45:18.271Z,24.90
2018-12-20T19:47:47.944Z,24.10
2018-12-20T19:50:17.557Z,25.37
2018-12-20T19:52:47.070Z,26.73
2018-12-20T19:55:15.892Z,25.00
2018-12-20T19:57:44.846Z,24.53
2018-12-20T20:00:16.719Z,24.47
2018-12-20T20:02:45.511Z,24.50
2018-12-20T20:05:14.327Z,27.83
2018-12-20T20:07:43.127Z,25.97
2018-12-20T20:10:14.164Z,29.50
2018-12-20T20:12:42.988Z,33.53
2018-12-20T20:15:16.678Z,33.70
2018-12-20T20:17:43.349Z,28.80
2018-12-20T20:20:14.182Z,28.20
2018-12-20T20:22:41.703Z,26.53
2018-12-20T20:25:10.499Z,24.07
2018-12-20T20:27:39.300Z,30.57
2018-12-20T20:30:13.464Z,27.57
2018-12-20T20:32:40.397Z,26.27
2018-12-20T20:35:09.222Z,19.20
2018-12-20T20:37:38.013Z,23.90
2018-12-20T20:40:09.424Z,21.57
2018-12-20T20:42:38.215Z,17.13
2018-12-20T20:45:07.271Z,24.57
2018-12-20T20:47:36.073Z,21.30
2018-12-20T20:50:06.274Z,29.50
2018-12-20T20:52:35.083Z,19.70
2018-12-20T20:55:05.750Z,22.57
2018-12-20T20:57:34.124Z,18.50
2018-12-20T21:00:03.099Z,19.70
2018-12-20T21:02:31.976Z,23.90
2018-12-20T21:05:00.782Z,17.23
2018-12-20T21:07:29.564Z,25.53
2018-12-20T21:09:58.367Z,41.50
2018-12-20T21:12:27.156Z,34.33
2018-12-20T21:14:56.487Z,13.57
2018-12-20T21:17:25.270Z,21.80
2018-12-20T21:19:54.166Z,16.27
2018-12-20T21:22:23.011Z,23.97
2018-12-20T21:24:51.803Z,18.73
2018-12-20T21:27:20.595Z,18.03
2018-12-20T21:29:49.408Z,12.37
2018-12-20T21:32:18.241Z,18.17
2018-12-20T21:34:47.998Z,15.90
2018-12-20T21:37:20.959Z,13.20
2018-12-20T21:39:49.753Z,17.50
2018-12-20T21:42:18.552Z,19.77
2018-12-20T21:44:47.355Z,17.87
2018-12-20T21:47:17.336Z,19.40
2018-12-20T21:49:46.090Z,22.47
2018-12-20T21:52:14.919Z,15.07
2018-12-20T21:54:43.735Z,16.40
2018-12-20T21:57:13.035Z,17.77
2018-12-20T21:59:42.398Z,20.47
2018-12-20T22:02:11.185Z,19.03
2018-12-20T22:04:40.039Z,9.43
2018-12-20T22:07:09.499Z,15.60
2018-12-20T22:09:38.287Z,17.40
2018-12-20T22:12:07.071Z,18.73
2018-12-20T22:14:35.880Z,17.03
2018-12-20T22:17:04.648Z,17.67
2018-12-20T22:19:33.452Z,18.93
2018-12-20T22:22:02.262Z,13.53
2018-12-20T22:24:32.181Z,17.20
2018-12-20T22:27:00.962Z,14.60
2018-12-20T22:29:30.800Z,17.63
2018-12-20T22:32:00.636Z,13.87
2018-12-20T22:34:29.429Z,24.40
2018-12-20T22:36:58.249Z,16.80
2018-12-20T22:39:27.031Z,20.40
2018-12-20T22:41:55.838Z,17.00
2018-12-20T22:44:24.624Z,14.67
2018-12-20T22:46:53.416Z,13.60
2018-12-20T22:49:22.212Z,14.20
2018-12-20T22:51:50.996Z,17.67
2018-12-20T22:54:21.603Z,21.10
2018-12-20T22:56:51.219Z,19.23
2018-12-20T22:59:20.627Z,19.03
2018-12-20T23:01:49.430Z,22.97
2018-12-20T23:04:18.251Z,26.07
2018-12-20T23:06:47.991Z,17.00
2018-12-20T23:09:16.853Z,24.43
2018-12-20T23:11:46.601Z,30.33
2018-12-20T23:14:15.376Z,22.03
2018-12-20T23:16:44.166Z,28.87
2018-12-20T23:19:13.071Z,29.03
2018-12-20T23:21:42.035Z,30.03
2018-12-20T23:24:10.927Z,27.53
2018-12-20T23:26:39.725Z,19.20
2018-12-20T23:29:08.555Z,29.23
2018-12-20T23:31:38.003Z,30.43
2018-12-20T23:34:06.820Z,19.53
2018-12-20T23:36:35.610Z,22.33
2018-12-20T23:39:05.856Z,17.43
2018-12-20T23:41:35.909Z,21.53
2018-12-20T23:44:04.699Z,26.23
2018-12-20T23:46:33.491Z,25.47
2018-12-20T23:49:03.199Z,31.40
2018-12-20T23:51:32.252Z,27.77
2018-12-20T23:54:01.053Z,26.30
2018-12-20T23:56:29.889Z,19.80
2018-12-20T23:58:58.679Z,17.53
